createdAt,value
2023-05-08T00:01:27.042Z,54.5
2023-05-08T00:03:28.711Z,50
2023-05-08T00:05:29.905Z,43
2023-05-08T00:07:31.336Z,52.5
2023-05-08T00:11:34.154Z,38.1
2023-05-08T00:13:35.593Z,34.5
2023-05-08T00:17:41.814Z,46.9
2023-05-08T00:31:55.031Z,46.5
2023-05-08T00:33:56.421Z,54
2023-05-08T00:34:58.775Z,48.7
2023-05-08T00:37:00.203Z,51.3
2023-05-08T00:39:01.644Z,49.6
2023-05-08T00:41:03.106Z,46.6
2023-05-08T00:43:07.783Z,54
2023-05-08T00:45:09.199Z,61.5
2023-05-08T00:47:10.592Z,48.4
2023-05-08T00:49:12.001Z,51.3
2023-05-08T00:51:13.423Z,48.4
2023-05-08T00:55:16.270Z,41.7
2023-05-08T00:57:21.025Z,63.8
2023-05-08T00:59:22.453Z,43.9
2023-05-08T01:07:28.146Z,48
2023-05-08T01:11:34.296Z,40.3
2023-05-08T01:15:37.115Z,51.9
2023-05-08T01:17:38.619Z,47
2023-05-08T01:19:40.000Z,42.8
2023-05-08T01:23:42.888Z,56.9
2023-05-08T01:25:47.573Z,49.2
2023-05-08T01:27:48.976Z,46
2023-05-08T01:30:52.807Z,39.5
2023-05-08T01:32:54.267Z,45.9
2023-05-08T01:34:55.650Z,47.5
2023-05-08T01:36:57.047Z,51.9
2023-05-08T01:39:01.788Z,56.4
2023-05-08T01:41:03.199Z,49.4
2023-05-08T01:43:04.617Z,42
2023-05-08T01:45:06.048Z,53.3
2023-05-08T01:47:07.589Z,56.1
2023-05-08T01:49:08.958Z,50.7
2023-05-08T01:51:10.365Z,35.3
2023-05-08T01:53:15.125Z,51.8
2023-05-08T01:57:18.015Z,40.7
2023-05-08T01:59:19.391Z,39.3
2023-05-08T02:01:20.954Z,46.4
2023-05-08T02:03:22.368Z,43.5
2023-05-08T02:05:23.710Z,43.3
2023-05-08T02:07:28.446Z,261.2
2023-05-08T02:09:29.852Z,183.3
2023-05-08T02:11:31.272Z,156.2
2023-05-08T02:13:32.758Z,43.1
2023-05-08T02:15:34.162Z,57.5
2023-05-08T02:17:35.589Z,197.8
2023-05-08T02:19:37.018Z,66.8
2023-05-08T02:21:41.707Z,77.3
2023-05-08T02:23:43.132Z,53.9
2023-05-08T02:25:44.593Z,30.7
2023-05-08T02:26:46.957Z,54.5
2023-05-08T02:53:12.186Z,45.7
2023-05-08T02:55:13.616Z,51.5
2023-05-08T02:57:15.046Z,50.4
2023-05-08T02:59:16.465Z,58.2
2023-05-08T03:07:25.486Z,50.4
2023-05-08T03:09:26.946Z,56
2023-05-08T03:11:28.347Z,70.1
2023-05-08T03:17:35.959Z,80.9
2023-05-08T03:19:37.408Z,67.7
2023-05-08T03:21:38.828Z,68.5
2023-05-08T03:34:19.693Z,62.5
2023-05-08T03:46:31.593Z,67.4
2023-05-08T03:52:35.856Z,53
2023-05-08T03:56:38.705Z,56.8
2023-05-08T04:00:44.892Z,64.8
2023-05-08T04:02:46.333Z,58.4
2023-05-08T04:04:47.764Z,57
2023-05-08T04:06:50.779Z,57.3
2023-05-08T04:08:50.615Z,48.1
2023-05-08T04:10:52.055Z,64.2
2023-05-08T04:12:56.854Z,79
2023-05-08T04:14:58.196Z,63.8
2023-05-08T04:24:06.344Z,63.5
2023-05-08T04:38:19.649Z,69.7
2023-05-08T04:40:24.357Z,73.4
2023-05-08T04:42:25.799Z,68.8
2023-05-08T04:46:28.661Z,58.3
2023-05-08T04:56:39.083Z,79.4
2023-05-08T04:58:40.471Z,85.1
2023-05-08T05:02:43.393Z,70.5
2023-05-08T05:04:44.762Z,63
2023-05-08T05:06:46.174Z,72.9
2023-05-08T05:08:50.876Z,82.9
2023-05-08T05:10:52.327Z,65.6
2023-05-08T05:12:53.816Z,101.3
2023-05-08T05:13:56.135Z,96.8
2023-05-08T05:30:11.049Z,91.7
2023-05-08T05:32:12.257Z,90.8
2023-05-08T05:34:13.686Z,80.9
2023-05-08T05:36:18.429Z,99.4
2023-05-08T05:38:19.835Z,102.7
2023-05-08T05:40:21.252Z,89.8
2023-05-08T05:42:22.672Z,86
2023-05-08T05:44:24.094Z,82.8
2023-05-08T05:46:25.570Z,75.2
2023-05-08T05:48:26.954Z,93.1
2023-05-08T05:50:31.714Z,77.6
2023-05-08T05:52:33.089Z,62
2023-05-08T05:54:34.546Z,80.5
2023-05-08T05:56:35.981Z,74.8
2023-05-08T06:00:38.804Z,62.9
2023-05-08T06:04:44.937Z,69.6
2023-05-08T06:06:46.370Z,59.2
2023-05-08T06:08:47.781Z,65.1
2023-05-08T06:09:50.113Z,53.6
2023-05-08T06:15:54.406Z,44.4
2023-05-08T06:17:59.128Z,51.3
2023-05-08T06:20:00.561Z,47.9
2023-05-08T06:24:03.344Z,50.9
2023-05-08T06:34:13.699Z,42.5
2023-05-08T06:38:16.535Z,33.7
2023-05-08T06:42:19.302Z,23.1
2023-05-08T06:46:25.473Z,21.9
2023-05-08T06:50:28.220Z,25.8
2023-05-08T06:52:29.605Z,24.8
2023-05-08T06:54:31.003Z,22.3
2023-05-08T06:56:32.400Z,28.6
2023-05-08T06:58:33.817Z,23.5
2023-05-08T07:02:39.943Z,26.3
2023-05-08T07:04:41.293Z,27.7
2023-05-08T07:23:23.795Z,31.5
2023-05-08T07:25:25.117Z,24.5
2023-05-08T07:27:29.852Z,28
2023-05-08T07:29:31.119Z,22.3
2023-05-08T07:31:32.521Z,24.3
2023-05-08T07:33:33.765Z,26.5
2023-05-08T07:35:35.040Z,25.6
2023-05-08T07:37:36.306Z,36
2023-05-08T07:39:37.609Z,33.6
2023-05-08T07:41:42.310Z,30.7
2023-05-08T07:43:43.560Z,29.5
2023-05-08T07:45:44.950Z,35.4
2023-05-08T07:51:48.857Z,36.2
2023-05-08T07:53:50.221Z,34.4
2023-05-08T07:55:54.833Z,34.3
2023-05-08T07:57:56.185Z,37.1
2023-05-08T07:59:57.499Z,31.4
2023-05-08T08:00:59.825Z,36.3
2023-05-08T08:09:08.413Z,36.4
2023-05-08T08:21:16.183Z,38.3
2023-05-08T08:23:20.822Z,43.1
2023-05-08T08:25:22.082Z,51.9
2023-05-08T08:27:23.373Z,39.4
2023-05-08T08:29:24.788Z,38.2
2023-05-08T08:31:25.958Z,37
2023-05-08T08:33:27.145Z,40.2
2023-05-08T08:37:32.840Z,41.9
2023-05-08T08:39:34.084Z,40.4
2023-05-08T08:41:35.362Z,33.6
2023-05-08T08:56:50.049Z,54.8
2023-05-08T08:58:51.356Z,55.1
2023-05-08T09:00:52.720Z,39.6
2023-05-08T09:02:54.223Z,51.7
2023-05-08T09:06:59.789Z,49.6
2023-05-08T09:09:01.136Z,52.6
2023-05-08T09:13:03.682Z,42.6
2023-05-08T09:15:05.039Z,40.6
2023-05-08T09:17:06.396Z,43.1
2023-05-08T09:19:12.734Z,58.9
2023-05-08T09:21:13.670Z,48.7
2023-05-08T09:23:14.940Z,48.9
2023-05-08T09:25:16.400Z,41.1
2023-05-08T09:27:17.445Z,61.7
2023-05-08T09:29:18.756Z,56.6
2023-05-08T09:31:20.143Z,54.4
2023-05-08T09:33:24.617Z,49.3
2023-05-08T09:35:25.856Z,44.6
2023-05-08T09:39:28.328Z,46.5
2023-05-08T09:43:30.841Z,45.5
2023-05-08T09:52:41.370Z,50.8
2023-05-08T09:54:42.700Z,68.9
2023-05-08T09:56:44.741Z,46
2023-05-08T09:58:45.972Z,50.6
2023-05-08T10:00:50.480Z,41.8
2023-05-08T10:02:51.706Z,38.6
2023-05-08T10:04:52.916Z,42
2023-05-08T10:06:56.468Z,36.2
2023-05-08T10:08:55.252Z,43
2023-05-08T10:10:56.562Z,36.5
2023-05-08T10:12:57.793Z,46.5
2023-05-08T10:15:02.184Z,48.6
2023-05-08T10:17:03.416Z,46.9
2023-05-08T10:19:04.536Z,52.4
2023-05-08T10:23:06.958Z,55.6
2023-05-08T10:25:08.141Z,48.5
2023-05-08T10:27:09.334Z,49
2023-05-08T10:31:14.987Z,53.1
2023-05-08T10:33:16.167Z,53
2023-05-08T10:35:17.388Z,50
2023-05-08T10:37:18.614Z,37.3
2023-05-08T10:39:19.909Z,54.9
2023-05-08T10:41:21.096Z,51.9
2023-05-08T10:43:25.595Z,40.4
2023-05-08T10:45:26.955Z,46.9
2023-05-08T10:47:28.108Z,58.3
2023-05-08T11:04:08.873Z,36
2023-05-08T11:18:21.160Z,54.5
2023-05-08T11:32:33.561Z,45
2023-05-08T11:34:34.881Z,47.2
2023-05-08T11:36:36.283Z,43.5
2023-05-08T11:42:43.686Z,47.2
2023-05-08T11:43:45.915Z,50.2
2023-05-08T11:45:47.237Z,55.7
2023-05-08T11:59:59.932Z,64.7
2023-05-08T12:02:08.719Z,55.2
2023-05-08T12:04:02.862Z,57.8
2023-05-08T12:06:07.225Z,53.6
2023-05-08T12:10:09.995Z,45.7
2023-05-08T12:14:12.640Z,50.9
2023-05-08T12:18:15.200Z,49
2023-05-08T12:20:19.976Z,50
2023-05-08T12:22:20.917Z,54.3
2023-05-08T12:24:22.223Z,46.5
2023-05-08T12:26:23.468Z,44.5
2023-05-08T12:30:26.100Z,48.9
2023-05-08T12:32:29.084Z,40.2
2023-05-08T12:36:33.237Z,43.1
2023-05-08T12:39:36.782Z,49.3
2023-05-08T12:41:38.023Z,55.9
2023-05-08T12:43:39.291Z,43.6
2023-05-08T12:47:45.077Z,44.6
2023-05-08T12:51:47.664Z,46.2
2023-05-08T12:53:48.923Z,49.5
2023-05-08T12:55:50.189Z,51.3
2023-05-08T12:57:51.525Z,50
2023-05-08T12:59:53.153Z,58.6
2023-05-08T13:01:57.505Z,47.8
2023-05-08T13:04:02.196Z,40.6
2023-05-08T13:05:59.908Z,60
2023-05-08T13:08:01.160Z,41.6
2023-05-08T13:10:02.483Z,45.1
2023-05-08T13:12:03.700Z,53.5
2023-05-08T13:14:04.931Z,37.3
2023-05-08T13:16:09.509Z,39.8
2023-05-08T13:20:11.962Z,45.1
2023-05-08T13:22:13.035Z,47.7
2023-05-08T13:24:14.266Z,44.4
2023-05-08T13:26:15.486Z,46.8
2023-05-08T13:28:16.692Z,50.3
2023-05-08T13:30:21.120Z,49.2
2023-05-08T13:32:22.393Z,45.6
2023-05-08T13:35:25.888Z,48.9
2023-05-08T13:43:33.972Z,52.1
2023-05-08T13:47:36.459Z,56.1
2023-05-08T13:49:37.626Z,40.7
2023-05-08T13:51:38.867Z,51.5
2023-05-08T13:53:40.077Z,57.5
2023-05-08T13:55:41.270Z,42.9
2023-05-08T13:57:45.575Z,40.6
2023-05-08T14:05:50.326Z,39.2
2023-05-08T14:07:51.554Z,44.8
2023-05-08T14:09:52.715Z,46.2
2023-05-08T14:11:57.179Z,52.9
2023-05-08T14:13:58.354Z,40.6
2023-05-08T14:15:59.576Z,49.8
2023-05-08T14:20:01.942Z,40.8
2023-05-08T14:22:03.139Z,41.3
2023-05-08T14:24:04.368Z,46.5
2023-05-08T14:26:08.800Z,48.8
2023-05-08T14:28:10.009Z,48.4
2023-05-08T14:30:11.568Z,46.2
2023-05-08T14:36:34.430Z,45.3
2023-05-08T14:38:38.831Z,40.8
2023-05-08T14:40:40.102Z,49.2
2023-05-08T14:42:41.341Z,51.6
2023-05-08T14:52:50.884Z,52.5
2023-05-08T14:56:53.464Z,50.9
2023-05-08T14:58:54.797Z,46.1
2023-05-08T15:02:57.456Z,51
2023-05-08T15:04:58.625Z,48.6
2023-05-08T15:09:06.111Z,49.6
2023-05-08T15:11:07.351Z,43.9
2023-05-08T15:15:09.856Z,54.1
2023-05-08T15:19:12.443Z,45.9
2023-05-08T15:21:16.937Z,46.8
2023-05-08T15:28:22.948Z,43.4
2023-05-08T15:30:24.188Z,41.6
2023-05-08T15:32:25.438Z,45
2023-05-08T15:34:32.799Z,46
2023-05-08T15:36:31.100Z,36.4
2023-05-08T15:38:32.264Z,40.5
2023-05-08T15:40:33.497Z,37.9
2023-05-08T15:42:34.698Z,34.1
2023-05-08T15:44:52.702Z,37.2
2023-05-08T15:46:37.052Z,43.3
2023-05-08T15:56:46.221Z,39.5
2023-05-08T16:04:54.388Z,47.4
2023-05-08T16:12:59.380Z,42.5
2023-05-08T16:15:00.539Z,48.3
2023-05-08T16:19:06.370Z,39.5
2023-05-08T16:21:07.571Z,45.5
2023-05-08T16:22:09.813Z,52.1
2023-05-08T16:24:11.129Z,42.2
2023-05-08T16:26:12.448Z,36.8
2023-05-08T16:28:13.754Z,42.8
2023-05-08T16:30:18.227Z,36.6
2023-05-08T16:36:21.842Z,40.6
2023-05-08T16:40:24.274Z,42.5
2023-05-08T16:42:25.534Z,36.3
2023-05-08T16:44:29.962Z,47.9
2023-05-08T16:48:32.415Z,45.2
2023-05-08T16:50:33.752Z,45.6
2023-05-08T16:54:36.179Z,38.7
2023-05-08T16:56:37.513Z,42
2023-05-08T17:02:44.698Z,29.1
2023-05-08T17:08:48.536Z,31.9
2023-05-08T17:10:49.744Z,35.9
2023-05-08T17:12:54.432Z,30.8
2023-05-08T17:14:55.487Z,35
2023-05-08T17:16:56.931Z,34
2023-05-08T17:17:59.080Z,35.8
2023-05-08T17:20:00.365Z,35.2
2023-05-08T17:26:07.522Z,30.4
2023-05-08T17:28:08.794Z,40.1
2023-05-08T17:30:10.093Z,31.3
2023-05-08T17:32:11.573Z,43.8
2023-05-08T17:34:12.780Z,29.7
2023-05-08T17:36:13.988Z,40.1
2023-05-08T17:40:19.679Z,41.1
2023-05-08T17:42:20.950Z,33.2
2023-05-08T17:44:22.177Z,48.6
2023-05-08T17:46:23.590Z,39.1
2023-05-08T17:48:24.682Z,38.9
2023-05-08T17:50:26.870Z,43
2023-05-08T17:52:28.210Z,41.4
2023-05-08T17:54:32.912Z,39.9
2023-05-08T17:56:34.146Z,37.7
2023-05-08T18:08:45.135Z,44.5
2023-05-08T18:12:47.823Z,48.5
2023-05-08T18:15:04.465Z,55.2
2023-05-08T18:17:05.739Z,50.7
2023-05-08T18:19:07.022Z,16.7
2023-05-08T18:21:11.612Z,14.1
2023-05-08T18:23:12.989Z,22.2
2023-05-08T18:25:14.318Z,24.6
2023-05-08T18:27:15.610Z,11.1
2023-05-08T18:29:16.920Z,3.9
2023-05-08T18:31:18.356Z,4.7
2023-05-08T18:33:19.693Z,8.3
2023-05-08T18:35:24.361Z,14.6
2023-05-08T18:37:25.800Z,17
2023-05-08T18:39:27.183Z,22.3
2023-05-08T18:43:29.966Z,29.8
2023-05-08T18:51:38.928Z,31.3
2023-05-08T18:57:43.140Z,28
2023-05-08T19:01:45.987Z,34.2
2023-05-08T19:05:52.129Z,29.4
2023-05-08T19:08:55.901Z,36.5
2023-05-08T19:10:57.344Z,40.7
2023-05-08T19:12:58.808Z,39.6
2023-05-08T19:15:00.195Z,33.1
2023-05-08T19:17:04.955Z,57.3
2023-05-08T19:19:06.378Z,37.4
2023-05-08T19:21:07.786Z,50.1
2023-05-08T19:23:09.210Z,57.4
2023-05-08T19:25:10.620Z,50.5
2023-05-08T19:27:12.080Z,50.4
2023-05-08T19:29:13.501Z,44.2
2023-05-08T19:33:19.627Z,55.8
2023-05-08T19:35:21.132Z,45.3
2023-05-08T19:39:23.940Z,63.4
2023-05-08T19:49:34.349Z,59.9
2023-05-08T19:51:35.819Z,52.3
2023-05-08T19:57:40.091Z,67.1
2023-05-08T19:59:44.815Z,63.3
2023-05-08T20:01:46.273Z,219.2
2023-05-08T20:03:47.764Z,56.1
2023-05-08T20:06:51.462Z,82.6
2023-05-08T20:10:54.346Z,76.3
2023-05-08T20:12:59.091Z,71.4
2023-05-08T20:15:00.501Z,73.6
2023-05-08T20:19:03.348Z,58.2
2023-05-08T20:29:13.758Z,65.2
2023-05-08T20:31:15.219Z,79.9
2023-05-08T20:35:18.069Z,67.9
2023-05-08T20:37:19.449Z,78.8
2023-05-08T20:39:20.861Z,66.3
2023-05-08T20:41:25.576Z,74.4
2023-05-08T20:43:27.016Z,74
2023-05-08T20:45:28.388Z,52.3
2023-05-08T20:47:29.897Z,61
2023-05-08T20:49:31.230Z,75.8
2023-05-08T20:51:32.690Z,77
2023-05-08T20:53:34.148Z,74.3
2023-05-08T20:55:38.843Z,96.2
2023-05-08T20:57:40.232Z,76.6
2023-05-08T20:59:43.253Z,80.6
2023-05-08T21:00:45.543Z,84.1
2023-05-08T21:17:00.355Z,76.6
2023-05-08T21:21:03.107Z,82.5
2023-05-08T21:23:07.883Z,81.1
2023-05-08T21:25:09.271Z,82.7
2023-05-08T21:27:10.710Z,82.7
2023-05-08T21:29:12.147Z,98.3
2023-05-08T21:31:13.594Z,110.7
2023-05-08T21:33:14.968Z,103.9
2023-05-08T21:35:16.592Z,113.3
2023-05-08T21:37:21.111Z,132.9
2023-05-08T21:39:22.572Z,134.4
2023-05-08T21:41:23.968Z,100.9
2023-05-08T21:45:26.878Z,138
2023-05-08T21:47:28.375Z,100.6
2023-05-08T21:49:29.659Z,116.6
2023-05-08T21:51:34.419Z,113.1
2023-05-08T21:53:35.811Z,147.1
2023-05-08T21:57:59.773Z,145.7
2023-05-08T22:00:01.220Z,132.5
2023-05-08T22:02:02.682Z,98.8
2023-05-08T22:04:07.369Z,160.7
2023-05-08T22:06:08.764Z,88.4
2023-05-08T22:08:10.215Z,114
2023-05-08T22:10:11.615Z,111.2
2023-05-08T22:12:13.054Z,174.2
2023-05-08T22:14:14.517Z,111.9
2023-05-08T22:18:20.615Z,124.1
2023-05-08T22:22:23.461Z,134
2023-05-08T22:24:24.891Z,158.2
2023-05-08T22:26:26.312Z,110.4
2023-05-08T22:28:27.706Z,134.5
2023-05-08T22:30:29.142Z,160.5
2023-05-08T22:32:33.951Z,160.5
2023-05-08T22:34:35.347Z,124.4
2023-05-08T22:38:38.168Z,140.6
2023-05-08T22:40:39.606Z,151.8
2023-05-08T22:42:41.021Z,173.8
2023-05-08T22:44:42.486Z,153.5
2023-05-08T22:46:47.298Z,178.2
2023-05-08T22:51:52.422Z,205.9
2023-05-08T22:53:53.823Z,194.3
2023-05-08T22:55:55.251Z,180.5
2023-05-08T23:00:01.373Z,197.5
2023-05-08T23:02:02.821Z,201.4
2023-05-08T23:04:04.256Z,184.3
2023-05-08T23:06:05.640Z,183.2
2023-05-08T23:08:07.091Z,235
2023-05-08T23:10:08.489Z,207.8
2023-05-08T23:12:09.919Z,181.2
2023-05-08T23:14:14.642Z,164.2
2023-05-08T23:16:16.098Z,214.1
2023-05-08T23:22:20.343Z,171.7
2023-05-08T23:26:23.184Z,169.5
2023-05-08T23:28:27.923Z,172.7
2023-05-08T23:30:29.401Z,151
2023-05-08T23:32:30.828Z,159.8
2023-05-08T23:34:32.200Z,161.5
2023-05-08T23:36:33.632Z,175.7
2023-05-08T23:38:35.051Z,156.8
2023-05-08T23:40:36.510Z,206.1
2023-05-08T23:42:41.256Z,160.6
2023-05-08T23:44:42.632Z,167.9
2023-05-08T23:46:44.149Z,206.2
2023-05-08T23:47:46.508Z,187.4
2023-05-08T23:51:49.256Z,224.7
2023-05-08T23:53:50.704Z,144.4
2023-05-08T23:55:55.407Z,139.4
2023-05-08T23:57:56.850Z,144.9
2023-05-08T23:59:58.291Z,164.6
